IGO355K VOGO-VAPO
Flight info
| Callsign | IGO355K |
|---|---|
| Flight time | 0h 34m |
| Altitude | 28000 |
| Route | EPKOS2B EPKOS W128 AVKOR DCT D115Y DCT CI28 |
| Aircraft | A320/M-SDE3FGHIRWY/LB1 |
Departure
| Time | 2026-04-27 12:14 |
|---|---|
| Airport | Goa Dabolim International Airport (VOGO) |
Arrival
| Time | 2026-04-27 12:48 |
|---|---|
| Airport | Pune International Airport (VAPO) |
| Time | Latitude | Longitude | Altitude | Speed | Heading |
|---|---|---|---|---|---|
| 2026-04-27 11:46 | 15.38438 | 73.83839 | 180 ft | 0 kts | 348° |
| 2026-04-27 11:54 | 15.38432 | 73.83840 | 180 ft | 2 kts | 348° |
| 2026-04-27 11:55 | 15.38417 | 73.83844 | 180 ft | 2 kts | 353° |
| 2026-04-27 11:55 | 15.38402 | 73.83844 | 180 ft | 2 kts | 7° |
| 2026-04-27 11:55 | 15.38387 | 73.83841 | 179 ft | 2 kts | 15° |
| 2026-04-27 11:55 | 15.38373 | 73.83836 | 179 ft | 2 kts | 27° |
| 2026-04-27 11:56 | 15.38361 | 73.83828 | 179 ft | 2 kts | 46° |
| 2026-04-27 11:56 | 15.38353 | 73.83818 | 178 ft | 0 kts | 53° |
| 2026-04-27 11:57 | 15.38355 | 73.83831 | 179 ft | 6 kts | 92° |
| 2026-04-27 11:57 | 15.38343 | 73.83841 | 179 ft | 0 kts | 178° |
| 2026-04-27 11:57 | 15.38329 | 73.83838 | 179 ft | 4 kts | 194° |
| 2026-04-27 11:57 | 15.38323 | 73.83836 | 179 ft | 0 kts | 199° |
| 2026-04-27 11:58 | 15.38315 | 73.83834 | 179 ft | 3 kts | 199° |
| 2026-04-27 11:58 | 15.38297 | 73.83828 | 179 ft | 1 kts | 198° |
| 2026-04-27 11:58 | 15.38294 | 73.83826 | 178 ft | 0 kts | 199° |
| 2026-04-27 11:58 | 15.38286 | 73.83824 | 178 ft | 1 kts | 200° |
| 2026-04-27 11:59 | 15.38438 | 73.83839 | 180 ft | 0 kts | 348° |
| 2026-04-27 12:06 | 15.38433 | 73.83840 | 180 ft | 1 kts | 348° |
| 2026-04-27 12:06 | 15.38424 | 73.83842 | 180 ft | 1 kts | 348° |
| 2026-04-27 12:06 | 15.38396 | 73.83848 | 180 ft | 6 kts | 348° |
| 2026-04-27 12:07 | 15.38347 | 73.83842 | 179 ft | 0 kts | 52° |
| 2026-04-27 12:10 | 15.38383 | 73.83900 | 182 ft | 8 kts | 72° |
| 2026-04-27 12:11 | 15.38416 | 73.84079 | 188 ft | 41 kts | 80° |
| 2026-04-27 12:11 | 15.38452 | 73.84316 | 207 ft | 18 kts | 81° |
| 2026-04-27 12:11 | 15.38473 | 73.84448 | 205 ft | 19 kts | 81° |
| 2026-04-27 12:11 | 15.38494 | 73.84582 | 214 ft | 19 kts | 79° |
| 2026-04-27 12:12 | 15.38518 | 73.84716 | 212 ft | 19 kts | 79° |
| 2026-04-27 12:12 | 15.38533 | 73.84806 | 217 ft | 0 kts | 97° |
| 2026-04-27 12:12 | 15.38512 | 73.84837 | 218 ft | 6 kts | 142° |
| 2026-04-27 12:13 | 15.38456 | 73.84846 | 218 ft | 11 kts | 186° |
| 2026-04-27 12:13 | 15.38378 | 73.84795 | 213 ft | 17 kts | 255° |
| 2026-04-27 12:13 | 15.38359 | 73.84693 | 212 ft | 44 kts | 259° |
| 2026-04-27 12:13 | 15.38250 | 73.84129 | 193 ft | 112 kts | 258° |
| 2026-04-27 12:14 | 15.38061 | 73.83185 | 366 ft | 142 kts | 258° |
| 2026-04-27 12:14 | 15.37845 | 73.82120 | 737 ft | 163 kts | 258° |
| 2026-04-27 12:14 | 15.37616 | 73.80942 | 1338 ft | 163 kts | 260° |
| 2026-04-27 12:14 | 15.37436 | 73.79858 | 2152 ft | 153 kts | 261° |
| 2026-04-27 12:15 | 15.37245 | 73.78688 | 2457 ft | 176 kts | 260° |
| 2026-04-27 12:15 | 15.37023 | 73.77360 | 2792 ft | 195 kts | 259° |
| 2026-04-27 12:15 | 15.36777 | 73.75949 | 3286 ft | 204 kts | 259° |
| 2026-04-27 12:15 | 15.36513 | 73.74476 | 3880 ft | 212 kts | 259° |
| 2026-04-27 12:16 | 15.36265 | 73.72947 | 4483 ft | 219 kts | 270° |
| 2026-04-27 12:16 | 15.36662 | 73.71404 | 5090 ft | 218 kts | 306° |
| 2026-04-27 12:16 | 15.37780 | 73.70413 | 5687 ft | 217 kts | 340° |
| 2026-04-27 12:16 | 15.39258 | 73.70192 | 6293 ft | 216 kts | 4° |
| 2026-04-27 12:17 | 15.40773 | 73.70282 | 6867 ft | 220 kts | 4° |
| 2026-04-27 12:17 | 15.42322 | 73.70361 | 7448 ft | 224 kts | 2° |
| 2026-04-27 12:17 | 15.43896 | 73.70415 | 8045 ft | 227 kts | 1° |
| 2026-04-27 12:17 | 15.45488 | 73.70449 | 8648 ft | 230 kts | 1° |
| 2026-04-27 12:18 | 15.47098 | 73.70477 | 9267 ft | 233 kts | 1° |
| 2026-04-27 12:18 | 15.48729 | 73.70507 | 9872 ft | 235 kts | 1° |
| 2026-04-27 12:18 | 15.50367 | 73.70539 | 10440 ft | 237 kts | 1° |
| 2026-04-27 12:18 | 15.52015 | 73.70573 | 11025 ft | 238 kts | 1° |
| 2026-04-27 12:19 | 15.53682 | 73.70611 | 11624 ft | 239 kts | 1° |
| 2026-04-27 12:19 | 15.54786 | 73.70637 | 12023 ft | 239 kts | 1° |
| 2026-04-27 12:19 | 15.57003 | 73.70692 | 12844 ft | 240 kts | 1° |
| 2026-04-27 12:19 | 15.58690 | 73.70735 | 13368 ft | 248 kts | 1° |
| 2026-04-27 12:20 | 15.60425 | 73.70867 | 13778 ft | 260 kts | 10° |
| 2026-04-27 12:20 | 15.61677 | 73.71081 | 14057 ft | 269 kts | 11° |
| 2026-04-27 12:20 | 15.63569 | 73.71433 | 14452 ft | 283 kts | 11° |
| 2026-04-27 12:20 | 15.66224 | 73.71947 | 14860 ft | 306 kts | 11° |
| 2026-04-27 12:21 | 15.67657 | 73.72228 | 14896 ft | 323 kts | 11° |
| 2026-04-27 12:21 | 15.69963 | 73.72677 | 14906 ft | 349 kts | 11° |
| 2026-04-27 12:21 | 15.72399 | 73.73147 | 14912 ft | 372 kts | 11° |
| 2026-04-27 12:21 | 15.75015 | 73.73649 | 15044 ft | 389 kts | 11° |
| 2026-04-27 12:22 | 15.77717 | 73.74166 | 15365 ft | 399 kts | 11° |
| 2026-04-27 12:22 | 15.80434 | 73.74687 | 15697 ft | 407 kts | 11° |
| 2026-04-27 12:22 | 15.83270 | 73.75232 | 16039 ft | 415 kts | 11° |
| 2026-04-27 12:22 | 15.86126 | 73.75782 | 16377 ft | 419 kts | 10° |
| 2026-04-27 12:23 | 15.89003 | 73.76336 | 16721 ft | 422 kts | 10° |
| 2026-04-27 12:23 | 15.91899 | 73.76893 | 17076 ft | 425 kts | 10° |
| 2026-04-27 12:23 | 15.94819 | 73.77485 | 17427 ft | 427 kts | 13° |
| 2026-04-27 12:23 | 15.97691 | 73.78344 | 17787 ft | 431 kts | 19° |
| 2026-04-27 12:24 | 16.00539 | 73.79385 | 18137 ft | 434 kts | 19° |
| 2026-04-27 12:24 | 16.03357 | 73.80445 | 18450 ft | 436 kts | 19° |
| 2026-04-27 12:24 | 16.06212 | 73.81524 | 18761 ft | 438 kts | 19° |
| 2026-04-27 12:24 | 16.09094 | 73.82608 | 19075 ft | 440 kts | 19° |
| 2026-04-27 12:25 | 16.11991 | 73.83689 | 19397 ft | 442 kts | 19° |
| 2026-04-27 12:25 | 16.14901 | 73.84770 | 19721 ft | 444 kts | 19° |
| 2026-04-27 12:25 | 16.17892 | 73.85877 | 20050 ft | 447 kts | 18° |
| 2026-04-27 12:25 | 16.20837 | 73.86966 | 20385 ft | 449 kts | 18° |
| 2026-04-27 12:26 | 16.23744 | 73.88039 | 20710 ft | 451 kts | 18° |
| 2026-04-27 12:26 | 16.26725 | 73.89138 | 21048 ft | 454 kts | 18° |
| 2026-04-27 12:26 | 16.29763 | 73.90259 | 21398 ft | 456 kts | 18° |
| 2026-04-27 12:26 | 16.32765 | 73.91366 | 21744 ft | 459 kts | 18° |
| 2026-04-27 12:27 | 16.35782 | 73.92480 | 22093 ft | 461 kts | 18° |
| 2026-04-27 12:27 | 16.38787 | 73.93590 | 22437 ft | 464 kts | 18° |
| 2026-04-27 12:27 | 16.41846 | 73.94722 | 22802 ft | 466 kts | 18° |
| 2026-04-27 12:27 | 16.44910 | 73.95856 | 23162 ft | 468 kts | 18° |
| 2026-04-27 12:28 | 16.48007 | 73.97002 | 23507 ft | 470 kts | 17° |
| 2026-04-27 12:28 | 16.51058 | 73.98131 | 23803 ft | 472 kts | 17° |
| 2026-04-27 12:28 | 16.54157 | 73.99278 | 24113 ft | 473 kts | 17° |
| 2026-04-27 12:28 | 16.57273 | 74.00433 | 24426 ft | 475 kts | 17° |
| 2026-04-27 12:29 | 16.60391 | 74.01589 | 24736 ft | 476 kts | 17° |
| 2026-04-27 12:29 | 16.63528 | 74.02752 | 25050 ft | 478 kts | 17° |
| 2026-04-27 12:29 | 16.66662 | 74.03914 | 25372 ft | 479 kts | 17° |
| 2026-04-27 12:29 | 16.69769 | 74.05069 | 25689 ft | 481 kts | 17° |
| 2026-04-27 12:30 | 16.72932 | 74.06244 | 26013 ft | 481 kts | 16° |
| 2026-04-27 12:30 | 16.76098 | 74.07419 | 26346 ft | 482 kts | 16° |
| 2026-04-27 12:30 | 16.79215 | 74.08576 | 26669 ft | 483 kts | 16° |
| 2026-04-27 12:30 | 16.82391 | 74.09756 | 27010 ft | 483 kts | 16° |
| 2026-04-27 12:31 | 16.85485 | 74.10823 | 27341 ft | 482 kts | 11° |
| 2026-04-27 12:31 | 16.88795 | 74.11616 | 27690 ft | 478 kts | 4° |
| 2026-04-27 12:31 | 16.92143 | 74.12016 | 27839 ft | 479 kts | 357° |
| 2026-04-27 12:31 | 16.95505 | 74.12035 | 27826 ft | 483 kts | 352° |
| 2026-04-27 12:32 | 16.98854 | 74.11896 | 27830 ft | 489 kts | 352° |
| 2026-04-27 12:32 | 17.02287 | 74.11750 | 27829 ft | 496 kts | 352° |
| 2026-04-27 12:32 | 17.05752 | 74.11631 | 27828 ft | 502 kts | 353° |
| 2026-04-27 12:32 | 17.09281 | 74.11540 | 27827 ft | 505 kts | 354° |
| 2026-04-27 12:33 | 17.12797 | 74.11471 | 27825 ft | 504 kts | 354° |
| 2026-04-27 12:33 | 17.16304 | 74.11415 | 27799 ft | 504 kts | 354° |
| 2026-04-27 12:33 | 17.19817 | 74.11360 | 27587 ft | 503 kts | 354° |
| 2026-04-27 12:33 | 17.23247 | 74.11306 | 27210 ft | 500 kts | 354° |
| 2026-04-27 12:34 | 17.26753 | 74.11246 | 26840 ft | 497 kts | 354° |
| 2026-04-27 12:34 | 17.30193 | 74.11186 | 26484 ft | 494 kts | 354° |
| 2026-04-27 12:34 | 17.33620 | 74.11124 | 26115 ft | 491 kts | 354° |
| 2026-04-27 12:34 | 17.37090 | 74.11057 | 25765 ft | 489 kts | 355° |
| 2026-04-27 12:35 | 17.40467 | 74.10992 | 25420 ft | 486 kts | 355° |
| 2026-04-27 12:35 | 17.43838 | 74.10926 | 25080 ft | 484 kts | 355° |
| 2026-04-27 12:35 | 17.47200 | 74.10861 | 24735 ft | 481 kts | 355° |
| 2026-04-27 12:35 | 17.50543 | 74.10797 | 24400 ft | 479 kts | 355° |
| 2026-04-27 12:36 | 17.53866 | 74.10733 | 24072 ft | 477 kts | 355° |
| 2026-04-27 12:36 | 17.57176 | 74.10668 | 23743 ft | 474 kts | 356° |
| 2026-04-27 12:36 | 17.60470 | 74.10603 | 23420 ft | 473 kts | 356° |
| 2026-04-27 12:36 | 17.63764 | 74.10538 | 23040 ft | 469 kts | 356° |
| 2026-04-27 12:37 | 17.67015 | 74.10475 | 22648 ft | 466 kts | 356° |
| 2026-04-27 12:37 | 17.70246 | 74.10412 | 22262 ft | 462 kts | 356° |
| 2026-04-27 12:37 | 17.73461 | 74.10350 | 21886 ft | 459 kts | 356° |
| 2026-04-27 12:37 | 17.76615 | 74.10289 | 21520 ft | 456 kts | 357° |
| 2026-04-27 12:38 | 17.79780 | 74.10227 | 21148 ft | 453 kts | 357° |
| 2026-04-27 12:38 | 17.82934 | 74.10167 | 20787 ft | 450 kts | 357° |
| 2026-04-27 12:38 | 17.86093 | 74.10107 | 20422 ft | 447 kts | 357° |
| 2026-04-27 12:38 | 17.89203 | 74.10047 | 20070 ft | 445 kts | 357° |
| 2026-04-27 12:39 | 17.92291 | 74.09987 | 19724 ft | 443 kts | 358° |
| 2026-04-27 12:39 | 17.95365 | 74.09928 | 19380 ft | 439 kts | 358° |
| 2026-04-27 12:39 | 17.98366 | 74.09870 | 19040 ft | 437 kts | 358° |
| 2026-04-27 12:39 | 18.01400 | 74.09812 | 18644 ft | 434 kts | 358° |
| 2026-04-27 12:40 | 18.04399 | 74.09751 | 18149 ft | 415 kts | 358° |
| 2026-04-27 12:40 | 18.07191 | 74.09692 | 17602 ft | 398 kts | 359° |
| 2026-04-27 12:40 | 18.09903 | 74.09634 | 17029 ft | 384 kts | 359° |
| 2026-04-27 12:40 | 18.12545 | 74.09578 | 16337 ft | 374 kts | 359° |
| 2026-04-27 12:41 | 18.15128 | 74.09526 | 15657 ft | 366 kts | 359° |
| 2026-04-27 12:41 | 18.17646 | 74.09472 | 15000 ft | 358 kts | 360° |
| 2026-04-27 12:41 | 18.20107 | 74.09423 | 14351 ft | 351 kts | 0° |
| 2026-04-27 12:41 | 18.22543 | 74.09376 | 13714 ft | 345 kts | 0° |
| 2026-04-27 12:42 | 18.24891 | 74.09331 | 13031 ft | 340 kts | 0° |
| 2026-04-27 12:42 | 18.27276 | 74.09287 | 12323 ft | 334 kts | 1° |
| 2026-04-27 12:42 | 18.29591 | 74.09246 | 11646 ft | 330 kts | 1° |
| 2026-04-27 12:42 | 18.31872 | 74.09207 | 10980 ft | 325 kts | 1° |
| 2026-04-27 12:43 | 18.34118 | 74.09168 | 10330 ft | 321 kts | 1° |
| 2026-04-27 12:43 | 18.36346 | 74.09129 | 9688 ft | 317 kts | 1° |
| 2026-04-27 12:43 | 18.38537 | 74.09093 | 9001 ft | 313 kts | 1° |
| 2026-04-27 12:43 | 18.40677 | 74.09060 | 8326 ft | 310 kts | 0° |
| 2026-04-27 12:44 | 18.42820 | 74.09027 | 7659 ft | 306 kts | 0° |
| 2026-04-27 12:44 | 18.44943 | 74.08993 | 7005 ft | 302 kts | 359° |
| 2026-04-27 12:44 | 18.47043 | 74.08960 | 6359 ft | 299 kts | 359° |
| 2026-04-27 12:44 | 18.49113 | 74.08930 | 5699 ft | 296 kts | 358° |
| 2026-04-27 12:45 | 18.51132 | 74.08896 | 5044 ft | 294 kts | 358° |
| 2026-04-27 12:45 | 18.53179 | 74.08864 | 4381 ft | 292 kts | 357° |
| 2026-04-27 12:45 | 18.55144 | 74.08506 | 3858 ft | 281 kts | 335° |
| 2026-04-27 12:45 | 18.56659 | 74.07349 | 3689 ft | 265 kts | 308° |
| 2026-04-27 12:46 | 18.57437 | 74.05669 | 3621 ft | 249 kts | 281° |
| 2026-04-27 12:46 | 18.57529 | 74.03903 | 3614 ft | 235 kts | 272° |
| 2026-04-27 12:46 | 18.57560 | 74.02208 | 3585 ft | 230 kts | 275° |
| 2026-04-27 12:46 | 18.57695 | 74.00522 | 3242 ft | 233 kts | 277° |
| 2026-04-27 12:47 | 18.57792 | 73.98844 | 3002 ft | 222 kts | 276° |
| 2026-04-27 12:47 | 18.57890 | 73.97310 | 2716 ft | 195 kts | 275° |
| 2026-04-27 12:47 | 18.57975 | 73.95991 | 2488 ft | 168 kts | 276° |
| 2026-04-27 12:47 | 18.58044 | 73.94839 | 2253 ft | 149 kts | 275° |
| 2026-04-27 12:48 | 18.58107 | 73.93744 | 2010 ft | 153 kts | 276° |
| 2026-04-27 12:48 | 18.58189 | 73.92640 | 1941 ft | 152 kts | 275° |
| 2026-04-27 12:48 | 18.58233 | 73.91600 | 1924 ft | 124 kts | 275° |
| 2026-04-27 12:48 | 18.58283 | 73.91049 | 1924 ft | 45 kts | 276° |
| 2026-04-27 12:49 | 18.58291 | 73.90866 | 1924 ft | 21 kts | 273° |
| 2026-04-27 12:49 | 18.58301 | 73.90716 | 1924 ft | 15 kts | 275° |
| 2026-04-27 12:49 | 18.58264 | 73.90655 | 1924 ft | 8 kts | 197° |
| 2026-04-27 12:49 | 18.58205 | 73.90657 | 1924 ft | 10 kts | 178° |
| 2026-04-27 12:50 | 18.58143 | 73.90677 | 1924 ft | 6 kts | 135° |
| 2026-04-27 12:50 | 18.58134 | 73.90705 | 1924 ft | 4 kts | 86° |
| 2026-04-27 12:50 | 18.58137 | 73.90751 | 1924 ft | 9 kts | 86° |
| 2026-04-27 12:50 | 18.58134 | 73.90829 | 1924 ft | 13 kts | 92° |
| 2026-04-27 12:51 | 18.58114 | 73.90918 | 1924 ft | 13 kts | 138° |
| 2026-04-27 12:51 | 18.58060 | 73.90930 | 1924 ft | 7 kts | 182° |
| 2026-04-27 12:51 | 18.58006 | 73.90923 | 1924 ft | 8 kts | 193° |
| 2026-04-27 12:51 | 18.58000 | 73.90922 | 1924 ft | 0 kts | 188° |